createdAt,value
2022-12-13T00:00:46.571Z,6.95
2022-12-13T00:01:27.534Z,6.97
2022-12-13T00:02:07.570Z,7.38
2022-12-13T00:02:51.838Z,7.65
2022-12-13T00:03:31.513Z,7.81
2022-12-13T00:04:20.528Z,7.57
2022-12-13T00:05:14.873Z,7.89
2022-12-13T00:06:09.532Z,8.61
2022-12-13T00:07:04.500Z,8.86
2022-12-13T00:07:58.539Z,8.06
2022-12-13T00:08:52.507Z,7.30
2022-12-13T00:09:39.507Z,6.99
2022-12-13T00:10:13.679Z,7.15
2022-12-13T00:11:13.483Z,7.78
2022-12-13T00:11:47.523Z,7.38
2022-12-13T00:12:34.493Z,7.65
2022-12-13T00:13:08.583Z,7.90
2022-12-13T00:13:56.492Z,8.02
2022-12-13T00:14:32.547Z,9.63
2022-12-13T00:15:13.859Z,13.60
2022-12-13T00:16:04.573Z,15.02
2022-12-13T00:16:44.528Z,14.57
2022-12-13T00:17:24.933Z,12.35
2022-12-13T00:18:04.471Z,8.76
2022-12-13T00:18:44.542Z,7.61
2022-12-13T00:19:25.479Z,7.49
2022-12-13T00:20:05.585Z,7.54
2022-12-13T00:20:47.522Z,7.38
2022-12-13T00:21:30.549Z,7.26
2022-12-13T00:22:10.480Z,7.28
2022-12-13T00:22:50.521Z,7.75
2022-12-13T00:23:31.464Z,7.97
2022-12-13T00:24:12.559Z,7.28
2022-12-13T00:24:52.468Z,7.10
2022-12-13T00:25:32.515Z,7.26
2022-12-13T00:26:16.497Z,7.19
2022-12-13T00:26:56.622Z,7.72
2022-12-13T00:27:36.467Z,7.96
2022-12-13T00:28:16.776Z,8.16
2022-12-13T00:28:57.474Z,8.31
2022-12-13T00:29:37.603Z,7.71
2022-12-13T00:30:18.456Z,7.30
2022-12-13T00:31:13.035Z,7.55
2022-12-13T00:32:01.041Z,7.70
2022-12-13T00:32:41.519Z,7.57
2022-12-13T00:33:21.475Z,7.05
2022-12-13T00:34:01.529Z,6.91
2022-12-13T00:34:41.476Z,7.66
2022-12-13T00:35:21.569Z,8.02
2022-12-13T00:36:02.461Z,7.64
2022-12-13T00:36:42.506Z,7.89
2022-12-13T00:37:23.470Z,7.49
2022-12-13T00:38:03.520Z,7.21
2022-12-13T00:38:44.464Z,7.18
2022-12-13T00:39:24.552Z,7.06
2022-12-13T00:40:04.459Z,7.03
2022-12-13T00:40:44.496Z,7.13
2022-12-13T00:41:26.470Z,7.35
2022-12-13T00:42:06.488Z,7.53
2022-12-13T00:42:46.471Z,7.56
2022-12-13T00:43:26.479Z,8.19
2022-12-13T00:44:07.448Z,8.84
2022-12-13T00:44:47.531Z,10.13
2022-12-13T00:45:27.453Z,9.25
2022-12-13T00:46:07.564Z,8.44
2022-12-13T00:46:48.442Z,7.54
2022-12-13T00:47:28.491Z,7.05
2022-12-13T00:48:08.472Z,7.07
2022-12-13T00:48:49.566Z,7.46
2022-12-13T00:49:30.439Z,6.91
2022-12-13T00:50:11.531Z,6.64
2022-12-13T00:50:51.446Z,6.81
2022-12-13T00:51:32.549Z,6.90
2022-12-13T00:52:12.472Z,6.89
2022-12-13T00:52:52.478Z,7.05
2022-12-13T00:53:32.468Z,7.43
2022-12-13T00:54:12.487Z,6.80
2022-12-13T00:54:53.449Z,6.85
2022-12-13T00:55:34.523Z,7.21
2022-12-13T00:56:21.430Z,6.94
2022-12-13T00:57:01.475Z,6.66
2022-12-13T00:57:41.443Z,6.82
2022-12-13T00:58:21.475Z,6.64
2022-12-13T00:59:03.467Z,6.82
2022-12-13T00:59:43.508Z,6.81
2022-12-13T01:00:24.452Z,7.35
2022-12-13T01:01:14.606Z,7.18
2022-12-13T01:01:54.491Z,6.99
2022-12-13T01:02:34.554Z,6.71
2022-12-13T01:03:27.467Z,6.72
2022-12-13T01:04:17.488Z,6.69
2022-12-13T01:05:11.640Z,6.68
2022-12-13T01:06:14.977Z,7.19
2022-12-13T01:07:09.432Z,7.29
2022-12-13T01:08:03.465Z,6.88
2022-12-13T01:08:58.454Z,7.14
2022-12-13T01:09:40.452Z,6.97
2022-12-13T01:10:20.468Z,6.79
2022-12-13T01:11:01.444Z,6.99
2022-12-13T01:11:41.482Z,6.90
2022-12-13T01:12:21.440Z,6.81
2022-12-13T01:13:01.553Z,6.86
2022-12-13T01:13:42.434Z,7.11
2022-12-13T01:14:23.466Z,6.86
2022-12-13T01:15:04.457Z,6.22
2022-12-13T01:15:52.462Z,6.20
2022-12-13T01:16:32.520Z,6.25
2022-12-13T01:17:13.542Z,6.25
2022-12-13T01:17:55.432Z,6.60
2022-12-13T01:18:35.515Z,5.91
2022-12-13T01:19:15.419Z,5.94
2022-12-13T01:19:55.509Z,6.68
2022-12-13T01:20:35.479Z,6.51
2022-12-13T01:21:22.528Z,5.91
2022-12-13T01:22:05.407Z,5.81
2022-12-13T01:22:46.448Z,5.70
2022-12-13T01:23:26.398Z,5.74
2022-12-13T01:24:13.497Z,5.86
2022-12-13T01:24:53.416Z,6.20
2022-12-13T01:25:33.512Z,5.93
2022-12-13T01:26:20.419Z,5.74
2022-12-13T01:27:00.474Z,5.82
2022-12-13T01:27:41.399Z,5.78
2022-12-13T01:28:21.453Z,7.05
2022-12-13T01:29:01.410Z,8.30
2022-12-13T01:29:41.510Z,8.66
2022-12-13T01:30:21.407Z,9.20
2022-12-13T01:31:03.552Z,8.44
2022-12-13T01:31:47.416Z,6.96
2022-12-13T01:32:27.448Z,6.07
2022-12-13T01:33:14.349Z,5.80
2022-12-13T01:33:55.432Z,5.82
2022-12-13T01:34:35.392Z,5.63
2022-12-13T01:35:15.855Z,5.34
2022-12-13T01:35:57.394Z,5.22
2022-12-13T01:36:38.047Z,5.97
2022-12-13T01:37:19.411Z,6.71
2022-12-13T01:38:15.428Z,7.03
2022-12-13T01:38:58.823Z,6.55
2022-12-13T01:39:39.444Z,5.82
2022-12-13T01:40:20.396Z,6.18
2022-12-13T01:41:16.667Z,6.45
2022-12-13T01:42:06.379Z,5.97
2022-12-13T01:42:46.411Z,6.28
2022-12-13T01:43:22.451Z,6.44
2022-12-13T01:44:13.401Z,5.71
2022-12-13T01:45:15.844Z,5.96
2022-12-13T01:46:03.420Z,5.75
2022-12-13T01:46:41.433Z,6.29
2022-12-13T01:47:34.405Z,6.69
2022-12-13T01:48:19.435Z,5.80
2022-12-13T01:49:20.841Z,5.61
2022-12-13T01:50:20.398Z,5.19
2022-12-13T01:51:17.389Z,5.05
2022-12-13T01:52:16.391Z,5.24
2022-12-13T01:53:10.387Z,4.93
2022-12-13T01:53:53.387Z,4.88
2022-12-13T01:54:52.375Z,5.14
2022-12-13T01:55:49.364Z,5.16
2022-12-13T01:57:00.659Z,5.16
2022-12-13T01:57:56.380Z,5.18
2022-12-13T01:58:51.384Z,5.03
2022-12-13T01:59:33.385Z,5.30
2022-12-13T02:00:15.537Z,5.55
2022-12-13T02:00:56.436Z,5.34
2022-12-13T02:01:36.442Z,5.04
2022-12-13T02:02:19.356Z,4.90
2022-12-13T02:03:00.448Z,5.31
2022-12-13T02:03:41.377Z,5.61
2022-12-13T02:04:44.680Z,5.56
2022-12-13T02:05:47.472Z,5.50
2022-12-13T02:06:50.364Z,5.32
2022-12-13T02:07:26.476Z,4.89
2022-12-13T02:08:15.386Z,4.96
2022-12-13T02:08:51.378Z,5.14
2022-12-13T02:09:38.377Z,5.22
2022-12-13T02:10:21.392Z,5.07
2022-12-13T02:11:16.375Z,5.19
2022-12-13T02:12:10.366Z,5.46
2022-12-13T02:13:05.357Z,5.24
2022-12-13T02:13:59.354Z,5.11
2022-12-13T02:14:54.348Z,4.96
2022-12-13T02:15:53.418Z,4.89
2022-12-13T02:16:58.404Z,5.26
2022-12-13T02:18:12.408Z,6.14
2022-12-13T02:19:20.386Z,6.31
2022-12-13T02:20:41.347Z,5.55
2022-12-13T02:21:36.387Z,5.28
2022-12-13T02:22:42.427Z,5.00
2022-12-13T02:23:55.349Z,5.61
2022-12-13T02:24:45.391Z,5.56
2022-12-13T02:25:57.397Z,5.38
2022-12-13T02:27:06.365Z,5.32
2022-12-13T02:28:43.358Z,5.26
2022-12-13T02:30:02.351Z,5.65
2022-12-13T02:31:00.371Z,5.22
2022-12-13T02:32:15.378Z,5.57
2022-12-13T02:33:44.321Z,5.46
2022-12-13T02:34:54.322Z,5.88
2022-12-13T02:36:08.352Z,6.26
2022-12-13T02:37:18.207Z,5.79
2022-12-13T02:38:52.312Z,5.20
2022-12-13T02:39:52.328Z,5.06
2022-12-13T02:41:18.316Z,4.69
2022-12-13T02:42:22.225Z,4.55
2022-12-13T02:43:25.320Z,4.53
2022-12-13T02:44:38.325Z,4.49
2022-12-13T02:45:39.347Z,4.66
2022-12-13T02:46:36.344Z,4.88
2022-12-13T02:47:40.331Z,5.06
2022-12-13T02:48:54.325Z,5.11
2022-12-13T02:49:53.345Z,5.13
2022-12-13T02:50:48.330Z,4.88
2022-12-13T02:51:43.323Z,4.79
2022-12-13T02:52:41.324Z,5.32
2022-12-13T02:53:36.310Z,5.74
2022-12-13T02:54:23.330Z,5.81
2022-12-13T02:55:04.315Z,5.68
2022-12-13T02:55:48.403Z,5.40
2022-12-13T02:56:28.314Z,5.19
2022-12-13T02:57:08.440Z,4.74
2022-12-13T02:57:51.311Z,4.96
2022-12-13T02:58:37.338Z,5.05
2022-12-13T02:59:19.300Z,5.10
2022-12-13T02:59:59.360Z,4.74
2022-12-13T03:01:28.750Z,4.99
2022-12-13T03:02:31.255Z,4.76
2022-12-13T03:04:03.328Z,4.55
2022-12-13T03:05:25.065Z,4.19
2022-12-13T03:06:38.285Z,4.16
2022-12-13T03:07:50.388Z,4.34
2022-12-13T03:08:45.299Z,4.72
2022-12-13T03:09:56.329Z,4.53
2022-12-13T03:10:40.330Z,4.14
2022-12-13T03:11:28.271Z,4.36
2022-12-13T03:12:43.979Z,4.71
2022-12-13T03:14:01.263Z,4.56
2022-12-13T03:14:35.327Z,4.36
2022-12-13T03:15:41.427Z,4.41
2022-12-13T03:16:50.371Z,4.75
2022-12-13T03:17:32.299Z,5.03
2022-12-13T03:18:34.322Z,4.47
2022-12-13T03:19:17.292Z,4.35
2022-12-13T03:20:00.358Z,4.60
2022-12-13T03:20:40.261Z,5.00
2022-12-13T03:21:20.295Z,4.88
2022-12-13T03:21:56.334Z,5.09
2022-12-13T03:22:43.284Z,5.00
2022-12-13T03:23:18.580Z,5.01
2022-12-13T03:24:05.272Z,4.81
2022-12-13T03:24:39.640Z,4.89
2022-12-13T03:25:30.834Z,5.01
2022-12-13T03:26:19.301Z,4.97
2022-12-13T03:27:13.278Z,5.05
2022-12-13T03:28:07.293Z,5.30
2022-12-13T03:29:01.293Z,5.41
2022-12-13T03:29:55.284Z,5.01
2022-12-13T03:30:49.264Z,5.28
2022-12-13T03:31:36.311Z,5.36
2022-12-13T03:32:10.312Z,5.04
2022-12-13T03:32:57.259Z,4.71
2022-12-13T03:33:31.283Z,4.94
2022-12-13T03:34:22.972Z,4.89
2022-12-13T03:35:00.773Z,4.75
2022-12-13T03:36:04.286Z,4.78
2022-12-13T03:36:45.280Z,4.74
2022-12-13T03:37:40.265Z,4.94
2022-12-13T03:38:34.257Z,4.96
2022-12-13T03:39:28.246Z,4.71
2022-12-13T03:40:23.243Z,4.49
2022-12-13T03:41:25.267Z,4.78
2022-12-13T03:42:06.272Z,5.14
2022-12-13T03:42:46.289Z,4.88
2022-12-13T03:43:26.239Z,4.68
2022-12-13T03:44:11.279Z,4.72
2022-12-13T03:44:51.255Z,4.51
2022-12-13T03:45:31.281Z,4.46
2022-12-13T03:46:12.348Z,4.64
2022-12-13T03:46:53.037Z,4.95
2022-12-13T03:47:33.269Z,4.66
2022-12-13T03:48:13.309Z,4.21
2022-12-13T03:49:03.238Z,4.06
2022-12-13T03:49:43.272Z,4.18
2022-12-13T03:50:26.566Z,4.54
2022-12-13T03:51:07.314Z,4.39
2022-12-13T03:51:48.234Z,4.36
2022-12-13T03:52:28.292Z,4.59
2022-12-13T03:53:10.269Z,4.45
2022-12-13T03:54:04.300Z,4.49
2022-12-13T03:54:45.220Z,4.51
2022-12-13T03:55:25.303Z,4.65
2022-12-13T03:56:06.300Z,4.85
2022-12-13T03:57:00.238Z,4.72
2022-12-13T03:57:54.236Z,4.85
2022-12-13T03:58:37.620Z,5.44
2022-12-13T03:59:18.275Z,5.66
2022-12-13T03:59:58.254Z,5.10
2022-12-13T04:00:38.323Z,5.29
2022-12-13T04:01:22.345Z,5.15
2022-12-13T04:02:02.537Z,5.26
2022-12-13T04:02:42.249Z,5.11
2022-12-13T04:03:36.282Z,4.99
2022-12-13T04:04:30.229Z,5.09
2022-12-13T04:05:24.227Z,5.30
2022-12-13T04:06:22.725Z,5.35
2022-12-13T04:07:22.538Z,5.29
2022-12-13T04:08:21.903Z,5.03
2022-12-13T04:09:02.269Z,5.19
2022-12-13T04:09:42.255Z,4.97
2022-12-13T04:10:25.493Z,4.93
2022-12-13T04:11:25.026Z,5.06
2022-12-13T04:12:24.207Z,5.15
2022-12-13T04:13:23.075Z,5.72
2022-12-13T04:14:03.243Z,6.10
2022-12-13T04:14:43.309Z,5.46
2022-12-13T04:15:23.216Z,5.47
2022-12-13T04:16:03.508Z,4.96
2022-12-13T04:16:43.220Z,5.40
2022-12-13T04:17:23.268Z,5.38
2022-12-13T04:18:03.200Z,5.16
2022-12-13T04:18:43.413Z,5.44
2022-12-13T04:19:24.166Z,5.31
2022-12-13T04:20:04.288Z,5.34
2022-12-13T04:20:44.255Z,5.16
2022-12-13T04:21:24.252Z,4.66
2022-12-13T04:22:05.201Z,4.59
2022-12-13T04:22:45.240Z,4.63
2022-12-13T04:23:25.197Z,4.68
2022-12-13T04:24:05.243Z,4.66
2022-12-13T04:24:45.246Z,4.85
2022-12-13T04:25:25.228Z,4.90
2022-12-13T04:26:06.210Z,5.15
2022-12-13T04:26:46.624Z,5.14
2022-12-13T04:27:26.220Z,5.13
2022-12-13T04:28:06.257Z,5.04
2022-12-13T04:28:50.989Z,5.22
2022-12-13T04:29:35.116Z,5.19
2022-12-13T04:30:16.243Z,5.01
2022-12-13T04:31:00.230Z,4.71
2022-12-13T04:31:41.252Z,4.61
2022-12-13T04:32:25.878Z,4.94
2022-12-13T04:33:08.200Z,5.26
2022-12-13T04:34:02.191Z,5.81
2022-12-13T04:35:01.257Z,6.50
2022-12-13T04:35:41.208Z,7.60
2022-12-13T04:36:31.441Z,7.30
2022-12-13T04:37:13.183Z,7.03
2022-12-13T04:37:53.231Z,7.04
2022-12-13T04:38:34.190Z,6.84
2022-12-13T04:39:22.323Z,6.66
2022-12-13T04:40:03.186Z,5.96
2022-12-13T04:40:50.207Z,5.85
2022-12-13T04:41:50.183Z,5.36
2022-12-13T04:42:44.195Z,4.78
2022-12-13T04:43:38.165Z,4.44
2022-12-13T04:44:36.756Z,3.88
2022-12-13T04:45:32.227Z,3.65
2022-12-13T04:46:12.251Z,3.59
2022-12-13T04:46:52.248Z,3.55
2022-12-13T04:47:32.175Z,3.65
2022-12-13T04:48:13.671Z,3.40
2022-12-13T04:49:11.170Z,3.35
2022-12-13T04:49:51.228Z,3.20
2022-12-13T04:50:31.171Z,3.14
2022-12-13T04:51:11.227Z,3.47
2022-12-13T04:51:54.646Z,3.80
2022-12-13T04:52:37.465Z,3.08
2022-12-13T04:53:22.184Z,2.74
2022-12-13T04:54:13.121Z,2.75
2022-12-13T04:55:02.184Z,2.81
2022-12-13T04:55:44.275Z,2.65
2022-12-13T04:56:24.196Z,2.95
2022-12-13T04:57:11.214Z,2.94
2022-12-13T04:58:05.161Z,2.99
2022-12-13T04:58:59.199Z,2.99
2022-12-13T04:59:54.173Z,3.11
2022-12-13T05:00:48.197Z,3.36
2022-12-13T05:01:42.185Z,3.55
2022-12-13T05:02:29.191Z,4.65
2022-12-13T05:03:03.218Z,5.20
2022-12-13T05:03:50.156Z,4.72
2022-12-13T05:04:27.585Z,3.70
2022-12-13T05:05:19.263Z,3.58
2022-12-13T05:05:53.290Z,3.76
2022-12-13T05:06:40.172Z,3.72
2022-12-13T05:07:14.210Z,3.81
2022-12-13T05:07:54.231Z,3.88
2022-12-13T05:08:34.269Z,3.92
2022-12-13T05:09:14.144Z,4.05
2022-12-13T05:09:54.237Z,4.00
2022-12-13T05:10:38.074Z,3.92
2022-12-13T05:11:19.382Z,4.26
2022-12-13T05:12:22.800Z,4.43
2022-12-13T05:13:06.166Z,3.85
2022-12-13T05:13:47.398Z,4.32
2022-12-13T05:14:27.182Z,6.04
2022-12-13T05:15:07.201Z,5.90
2022-12-13T05:15:52.077Z,4.66
2022-12-13T05:16:35.237Z,3.81
2022-12-13T05:17:15.136Z,3.40
2022-12-13T05:17:55.171Z,3.79
2022-12-13T05:18:36.176Z,3.83
2022-12-13T05:19:16.199Z,3.50
2022-12-13T05:19:56.151Z,3.54
2022-12-13T05:20:36.264Z,3.29
2022-12-13T05:21:19.139Z,3.47
2022-12-13T05:22:01.244Z,3.69
2022-12-13T05:22:44.141Z,3.63
2022-12-13T05:23:27.176Z,3.81
2022-12-13T05:24:10.149Z,3.75
2022-12-13T05:24:51.199Z,3.65
2022-12-13T05:25:33.145Z,3.79
2022-12-13T05:26:13.184Z,4.14
2022-12-13T05:26:53.130Z,4.16
2022-12-13T05:27:33.164Z,4.07
2022-12-13T05:28:27.490Z,4.28
2022-12-13T05:29:09.207Z,3.88
2022-12-13T05:29:49.138Z,3.63
2022-12-13T05:30:29.168Z,3.65
2022-12-13T05:31:23.188Z,3.88
2022-12-13T05:32:05.198Z,3.94
2022-12-13T05:32:45.123Z,3.99
2022-12-13T05:33:25.512Z,3.79
2022-12-13T05:34:06.131Z,4.03
2022-12-13T05:34:46.168Z,4.41
2022-12-13T05:35:26.168Z,4.71
2022-12-13T05:36:06.160Z,4.86
2022-12-13T05:36:47.111Z,4.50
2022-12-13T05:37:28.260Z,4.63
2022-12-13T05:38:16.136Z,4.88
2022-12-13T05:38:57.183Z,4.84
2022-12-13T05:39:37.133Z,4.78
2022-12-13T05:40:17.166Z,4.59
2022-12-13T05:40:57.171Z,4.96
2022-12-13T05:41:40.431Z,5.09
2022-12-13T05:42:20.102Z,4.85
2022-12-13T05:43:02.066Z,4.28
2022-12-13T05:43:43.695Z,3.75
2022-12-13T05:44:24.307Z,3.91
2022-12-13T05:45:04.110Z,4.21
2022-12-13T05:45:44.240Z,4.41
2022-12-13T05:46:25.162Z,4.30
2022-12-13T05:47:06.195Z,4.51
2022-12-13T05:47:46.094Z,4.64
2022-12-13T05:48:26.143Z,4.56
2022-12-13T05:49:06.099Z,5.04
2022-12-13T05:49:46.138Z,5.40
2022-12-13T05:50:26.129Z,5.31
2022-12-13T05:51:09.822Z,5.05
2022-12-13T05:51:51.126Z,5.44
2022-12-13T05:52:31.328Z,5.79
2022-12-13T05:53:12.750Z,5.74
2022-12-13T05:53:53.609Z,5.43
2022-12-13T05:54:34.091Z,4.82
2022-12-13T05:55:15.601Z,4.96
2022-12-13T05:55:56.124Z,5.19
2022-12-13T05:56:36.182Z,5.97
2022-12-13T05:57:16.133Z,6.22
2022-12-13T05:58:02.172Z,6.71
2022-12-13T05:58:45.103Z,6.26
2022-12-13T05:59:25.154Z,6.09
2022-12-13T06:00:05.087Z,5.93
2022-12-13T06:00:47.989Z,5.76
2022-12-13T06:01:28.082Z,5.91
2022-12-13T06:02:08.270Z,6.59
2022-12-13T06:02:50.223Z,6.85
2022-12-13T06:03:30.230Z,6.90
2022-12-13T06:04:10.090Z,6.95
2022-12-13T06:04:51.284Z,7.18
2022-12-13T06:05:32.087Z,6.82
2022-12-13T06:06:17.465Z,6.44
2022-12-13T06:06:58.080Z,6.64
2022-12-13T06:07:39.163Z,6.30
2022-12-13T06:08:24.777Z,6.54
2022-12-13T06:09:07.245Z,7.34
2022-12-13T06:09:49.064Z,6.85
2022-12-13T06:10:34.437Z,6.53
2022-12-13T06:11:31.680Z,6.75
2022-12-13T06:12:32.041Z,6.89
2022-12-13T06:13:21.460Z,7.35
2022-12-13T06:14:21.632Z,7.29
2022-12-13T06:15:00.795Z,7.99
2022-12-13T06:15:35.765Z,8.56
2022-12-13T06:16:25.115Z,8.49
2022-12-13T06:16:59.182Z,8.59
2022-12-13T06:17:33.900Z,9.13
2022-12-13T06:18:14.097Z,9.79
2022-12-13T06:18:48.106Z,9.57
2022-12-13T06:19:32.106Z,9.05
2022-12-13T06:20:23.711Z,9.01
2022-12-13T06:21:07.064Z,9.25
2022-12-13T06:21:47.120Z,8.74
2022-12-13T06:22:27.060Z,8.76
2022-12-13T06:23:08.135Z,8.71
2022-12-13T06:23:48.068Z,7.85
2022-12-13T06:24:30.188Z,6.56
2022-12-13T06:25:31.092Z,6.50
2022-12-13T06:26:13.387Z,6.65
2022-12-13T06:26:54.059Z,7.32
2022-12-13T06:27:35.102Z,7.16
2022-12-13T06:28:16.077Z,7.41
2022-12-13T06:28:56.102Z,7.31
2022-12-13T06:29:36.052Z,6.36
2022-12-13T06:30:24.128Z,6.21
2022-12-13T06:31:01.352Z,6.86
2022-12-13T06:31:48.064Z,7.74
2022-12-13T06:32:21.723Z,8.56
2022-12-13T06:33:09.052Z,9.21
2022-12-13T06:33:46.760Z,10.41
2022-12-13T06:34:34.052Z,11.68
2022-12-13T06:35:27.129Z,11.94
2022-12-13T06:36:09.101Z,11.00
2022-12-13T06:36:43.147Z,11.04
2022-12-13T06:37:17.723Z,10.77
2022-12-13T06:38:01.672Z,11.54
2022-12-13T06:38:43.686Z,11.14
2022-12-13T06:39:17.943Z,11.57
2022-12-13T06:39:58.041Z,11.56
2022-12-13T06:40:39.133Z,10.38
2022-12-13T06:41:25.395Z,10.75
2022-12-13T06:42:11.072Z,10.48
2022-12-13T06:42:51.049Z,10.54
2022-12-13T06:43:31.095Z,10.95
2022-12-13T06:44:12.047Z,11.86
2022-12-13T06:44:55.779Z,12.49
2022-12-13T06:45:36.053Z,13.14
2022-12-13T06:46:17.182Z,13.99
2022-12-13T06:47:10.122Z,14.50
2022-12-13T06:47:51.070Z,13.79
2022-12-13T06:48:31.029Z,11.99
2022-12-13T06:49:12.088Z,12.91
2022-12-13T06:49:53.062Z,13.15
2022-12-13T06:50:33.081Z,12.99
2022-12-13T06:51:23.045Z,12.93
2022-12-13T06:52:26.070Z,11.86
2022-12-13T06:53:00.031Z,11.11
2022-12-13T06:53:50.055Z,10.57
2022-12-13T06:54:23.702Z,9.34
2022-12-13T06:55:11.031Z,9.32
2022-12-13T06:55:44.743Z,9.55
2022-12-13T06:56:32.047Z,9.38
2022-12-13T06:57:05.733Z,8.90
2022-12-13T06:57:47.059Z,9.41
2022-12-13T06:58:21.076Z,10.06
2022-12-13T06:59:01.730Z,10.13
2022-12-13T06:59:42.326Z,10.18
2022-12-13T07:00:21.968Z,10.48
2022-12-13T07:01:14.496Z,10.74
2022-12-13T07:01:55.059Z,10.96
2022-12-13T07:02:38.451Z,10.60
2022-12-13T07:03:20.090Z,10.74
2022-12-13T07:04:03.071Z,10.73
2022-12-13T07:04:43.024Z,11.05
2022-12-13T07:05:23.434Z,11.46
2022-12-13T07:06:10.004Z,10.89
2022-12-13T07:06:50.052Z,10.90
2022-12-13T07:07:31.028Z,10.89
2022-12-13T07:08:12.138Z,11.02
2022-12-13T07:09:00.044Z,10.55
2022-12-13T07:09:40.412Z,10.05
2022-12-13T07:10:22.529Z,10.55
2022-12-13T07:11:03.080Z,10.68
2022-12-13T07:11:47.094Z,9.89
2022-12-13T07:12:32.794Z,9.96
2022-12-13T07:13:12.998Z,9.50
2022-12-13T07:13:53.146Z,9.76
2022-12-13T07:14:33.011Z,9.99
2022-12-13T07:15:21.121Z,10.07
2022-12-13T07:16:01.362Z,10.06
2022-12-13T07:16:41.069Z,10.68
2022-12-13T07:17:33.572Z,10.90
2022-12-13T07:18:15.066Z,9.19
2022-12-13T07:18:55.005Z,10.39
2022-12-13T07:19:48.456Z,10.55
2022-12-13T07:20:23.463Z,10.18
2022-12-13T07:21:10.006Z,10.07
2022-12-13T07:21:56.397Z,9.86
2022-12-13T07:22:55.070Z,10.46
2022-12-13T07:23:31.694Z,11.71
2022-12-13T07:24:20.019Z,11.63
2022-12-13T07:25:00.016Z,11.11
2022-12-13T07:25:40.062Z,11.64
2022-12-13T07:26:20.984Z,11.52
2022-12-13T07:27:02.035Z,10.49
2022-12-13T07:27:42.976Z,10.61
2022-12-13T07:28:23.121Z,11.00
2022-12-13T07:29:04.014Z,11.15
2022-12-13T07:29:44.279Z,10.85
2022-12-13T07:30:25.003Z,10.68
2022-12-13T07:31:09.063Z,11.54
2022-12-13T07:31:50.010Z,12.00
2022-12-13T07:32:30.150Z,12.19
2022-12-13T07:33:11.979Z,12.36
2022-12-13T07:33:52.056Z,11.61
2022-12-13T07:34:31.997Z,11.29
2022-12-13T07:35:12.200Z,10.98
2022-12-13T07:35:55.283Z,10.70
2022-12-13T07:36:37.027Z,11.57
2022-12-13T07:37:30.076Z,12.39
2022-12-13T07:38:16.059Z,12.56
2022-12-13T07:39:00.971Z,13.43
2022-12-13T07:39:41.042Z,13.79
2022-12-13T07:40:20.981Z,13.50
2022-12-13T07:41:11.050Z,14.29
2022-12-13T07:41:44.652Z,13.90
2022-12-13T07:42:31.997Z,16.59
2022-12-13T07:43:06.133Z,22.26
2022-12-13T07:43:55.301Z,21.30
2022-12-13T07:44:30.100Z,16.64
2022-12-13T07:45:17.971Z,13.98
2022-12-13T07:45:53.132Z,13.52
2022-12-13T07:46:34.080Z,12.64
2022-12-13T07:47:08.097Z,11.74
2022-12-13T07:47:41.607Z,11.81
2022-12-13T07:48:21.975Z,13.74
2022-12-13T07:48:56.138Z,14.76
2022-12-13T07:49:35.722Z,15.05
2022-12-13T07:50:24.049Z,15.98
2022-12-13T07:51:00.040Z,16.16
2022-12-13T07:51:42.004Z,15.21
2022-12-13T07:52:22.059Z,13.93
2022-12-13T07:53:01.965Z,13.16
2022-12-13T07:53:42.018Z,13.70
2022-12-13T07:54:21.975Z,14.88
2022-12-13T07:55:04.202Z,14.94
2022-12-13T07:55:44.974Z,14.66
2022-12-13T07:56:25.000Z,15.04
2022-12-13T07:57:04.979Z,14.29
2022-12-13T07:57:44.999Z,14.91
2022-12-13T07:58:24.981Z,15.59
2022-12-13T07:59:05.064Z,14.63
2022-12-13T07:59:45.955Z,13.88
2022-12-13T08:00:27.049Z,14.13
2022-12-13T08:01:10.977Z,15.14
2022-12-13T08:01:52.230Z,14.41
2022-12-13T08:02:33.000Z,15.50
2022-12-13T08:03:24.344Z,15.18
2022-12-13T08:04:06.966Z,14.45
2022-12-13T08:04:54.756Z,14.77
2022-12-13T08:05:38.219Z,13.65
2022-12-13T08:06:19.999Z,13.74
2022-12-13T08:06:59.953Z,13.82
2022-12-13T08:07:47.004Z,14.56
2022-12-13T08:08:20.784Z,14.96
2022-12-13T08:09:12.030Z,14.00
2022-12-13T08:09:52.463Z,13.18
2022-12-13T08:10:41.993Z,13.94
2022-12-13T08:11:17.377Z,14.80
2022-12-13T08:12:03.995Z,15.25
2022-12-13T08:12:37.794Z,15.06
2022-12-13T08:13:18.172Z,14.14
2022-12-13T08:13:52.994Z,14.41
2022-12-13T08:14:26.875Z,14.76
2022-12-13T08:15:12.318Z,14.93
2022-12-13T08:15:48.077Z,15.45
2022-12-13T08:16:26.126Z,15.69
2022-12-13T08:17:07.952Z,15.35
2022-12-13T08:17:42.129Z,15.86
2022-12-13T08:18:16.680Z,15.52
2022-12-13T08:19:02.462Z,15.10
2022-12-13T08:19:37.994Z,16.60
2022-12-13T08:20:12.433Z,17.41
2022-12-13T08:21:45.421Z,17.19
2022-12-13T08:22:05.180Z,15.29
2022-12-13T08:23:01.963Z,14.44
2022-12-13T08:23:43.917Z,14.27
2022-12-13T08:24:25.020Z,14.77
2022-12-13T08:24:58.612Z,15.21
2022-12-13T08:25:45.940Z,15.31
2022-12-13T08:26:20.321Z,14.16
2022-12-13T08:27:08.973Z,13.15
2022-12-13T08:28:02.954Z,14.04
2022-12-13T08:28:57.973Z,15.01
2022-12-13T08:29:44.968Z,14.95
2022-12-13T08:30:22.982Z,14.91
2022-12-13T08:31:18.958Z,14.75
2022-12-13T08:31:53.057Z,14.66
2022-12-13T08:32:40.964Z,14.43
2022-12-13T08:33:15.076Z,14.68
2022-12-13T08:34:02.954Z,14.76
2022-12-13T08:34:37.040Z,14.99
2022-12-13T08:35:16.970Z,15.50
2022-12-13T08:35:56.986Z,14.75
2022-12-13T08:36:37.922Z,13.94
2022-12-13T08:37:19.019Z,14.70
2022-12-13T08:37:58.913Z,14.51
2022-12-13T08:38:41.019Z,12.79
2022-12-13T08:39:21.919Z,13.20
2022-12-13T08:40:03.928Z,13.23
2022-12-13T08:40:44.956Z,13.36
2022-12-13T08:41:24.971Z,14.44
2022-12-13T08:42:16.880Z,16.52
2022-12-13T08:43:01.961Z,16.63
2022-12-13T08:43:42.903Z,17.16
2022-12-13T08:44:22.980Z,17.90
2022-12-13T08:45:02.901Z,17.77
2022-12-13T08:45:42.990Z,17.38
2022-12-13T08:46:23.012Z,16.90
2022-12-13T08:47:03.118Z,16.36
2022-12-13T08:47:42.923Z,15.41
2022-12-13T08:48:23.365Z,14.43
2022-12-13T08:49:03.930Z,13.41
2022-12-13T08:49:43.939Z,13.24
2022-12-13T08:50:25.018Z,13.11
2022-12-13T08:51:11.444Z,11.46
2022-12-13T08:51:50.914Z,11.31
2022-12-13T08:52:30.919Z,11.98
2022-12-13T08:53:11.899Z,12.34
2022-12-13T08:54:11.253Z,12.41
2022-12-13T08:54:52.914Z,12.77
2022-12-13T08:55:32.957Z,12.66
2022-12-13T08:56:17.908Z,11.98
2022-12-13T08:57:04.901Z,12.24
2022-12-13T08:58:01.190Z,12.60
2022-12-13T08:58:55.875Z,12.63
2022-12-13T08:59:49.917Z,12.84
2022-12-13T09:00:43.946Z,13.15
2022-12-13T09:02:04.811Z,14.56
2022-12-13T09:02:45.993Z,16.13
2022-12-13T09:03:26.016Z,15.04
2022-12-13T09:04:06.888Z,14.64
2022-12-13T09:04:46.930Z,15.98
2022-12-13T09:05:33.847Z,14.32
2022-12-13T09:06:18.927Z,14.66
2022-12-13T09:07:01.716Z,15.55
2022-12-13T09:07:43.831Z,15.88
2022-12-13T09:08:25.673Z,16.00
2022-12-13T09:09:05.935Z,15.30
2022-12-13T09:09:45.871Z,14.25
2022-12-13T09:10:38.563Z,12.76
2022-12-13T09:11:22.691Z,12.61
2022-12-13T09:12:30.308Z,13.50
2022-12-13T09:13:12.051Z,13.69
2022-12-13T09:13:52.899Z,14.43
2022-12-13T09:14:35.331Z,15.38
2022-12-13T09:15:23.079Z,16.19
2022-12-13T09:16:01.386Z,14.79
2022-12-13T09:16:50.573Z,14.20
2022-12-13T09:17:25.401Z,13.49
2022-12-13T09:18:15.193Z,12.66
2022-12-13T09:18:55.504Z,11.35
2022-12-13T09:19:37.212Z,12.19
2022-12-13T09:20:28.770Z,14.05
2022-12-13T09:21:22.389Z,13.99
2022-12-13T09:22:14.687Z,14.06
2022-12-13T09:23:01.758Z,15.84
2022-12-13T09:23:45.979Z,16.40
2022-12-13T09:24:27.855Z,16.51
2022-12-13T09:25:15.863Z,15.91
2022-12-13T09:26:06.349Z,16.63
2022-12-13T09:26:57.211Z,17.67
2022-12-13T09:27:39.929Z,18.69
2022-12-13T09:28:26.873Z,18.42
2022-12-13T09:29:10.860Z,17.35
2022-12-13T09:29:59.851Z,17.26
2022-12-13T09:30:40.890Z,17.24
2022-12-13T09:31:34.899Z,17.26
2022-12-13T09:32:28.958Z,16.83
2022-12-13T09:33:30.822Z,16.83
2022-12-13T09:34:24.882Z,16.61
2022-12-13T09:35:19.872Z,16.00
2022-12-13T09:36:01.262Z,15.35
2022-12-13T09:36:42.283Z,14.52
2022-12-13T09:37:23.127Z,14.26
2022-12-13T09:38:03.964Z,13.34
2022-12-13T09:38:43.852Z,13.82
2022-12-13T09:39:23.916Z,14.55
2022-12-13T09:40:16.135Z,15.14
2022-12-13T09:41:12.887Z,14.21
2022-12-13T09:42:13.859Z,14.96
2022-12-13T09:43:12.292Z,14.74
2022-12-13T09:44:31.508Z,14.77
2022-12-13T09:45:32.063Z,16.08
2022-12-13T09:46:44.964Z,14.80
2022-12-13T09:47:47.856Z,14.49
2022-12-13T09:48:48.639Z,13.15
2022-12-13T09:49:54.109Z,13.07
2022-12-13T09:50:58.374Z,14.09
2022-12-13T09:52:11.422Z,15.14
2022-12-13T09:53:12.156Z,15.32
2022-12-13T09:54:20.860Z,15.39
2022-12-13T09:55:14.865Z,15.18
2022-12-13T09:56:10.983Z,15.26
2022-12-13T09:56:54.502Z,15.39
2022-12-13T09:57:37.877Z,15.26
2022-12-13T09:58:40.995Z,16.70
2022-12-13T09:59:14.605Z,16.65
2022-12-13T10:00:01.086Z,14.45
2022-12-13T10:00:42.019Z,13.52
2022-12-13T10:01:22.660Z,14.54